Ana Sayfa
METAR-TAF:

METAR-TAF

Havaalanları :

Palacios Municipal Airport

Palacios, Teksas, Amerika Birleşik Devletleri

Enlem: 28-43-39N, Boylam: 096-15-03W, yükseklik: 5 m

Güncel hava durumu gözlemi

Rapor saat 00:53 UTC de 1 saat ve 7 dakika önce yapıldı.
Rüzgar güney/güneydoğudan 5 kt
Sıcaklık 16°C
Nem 88%
Basınç 1013 hPa
Görüş mesafesi: 12.9 km
Açık gökyüzü

METAR: KPSX 190053Z AUTO 15005KT 8SM CLR 16/14 A2992 RMK AO2 SLP132 T01610139

Saat: 20:00 (02:00 UTC)


TAF: eksik

4.000'den fazla havaalanı için hava durumu gözlemleri ve tahminleri (METAR ve TAF raporları).

Kullanılabilir istasyonlar harita üzerinde sarı ve kırmızı noktalarla gösterilir.

İstasyonun adını görmek için fareyi noktanın üzerinde gezdirin.

Sonrasında hava gözlem ve tahminlerini görmek için tıklayın.

Haritayı değiştirmek için: yaklaştırmak için siyah artı işaretli yeşil düğmeye ve uzaklaştırmak için de eksi işaretli düğmeye hızla tıklayın; bitişik haritalar için yeşil okları kullanın.


METAR-TAF: